Time;durP1;ratioP1;P1;durP2;ratioP2;P2;SDS_P1;SDS_P2;PMS_P1;PMS_P2;Temp;Humidity;BMP_temperature;BMP_pressure;BME280_temperature;BME280_humidity;BME280_pressure;Samples;Min_cycle;Max_cycle;Signal;HPM_P1;HPM_P2
2022/12/21 00:00:11;;;;;;;9.38;7.82;;;;;;;14.74;45.99;93276.47;5005926;28;20038;-85
2022/12/21 00:02:37;;;;;;;11.48;7.97;;;;;;;14.80;45.74;93270.31;5022945;28;20049;-86
2022/12/21 00:05:03;;;;;;;10.90;8.00;;;;;;;14.82;45.83;93268.59;5005866;28;20162;-88
2022/12/21 00:07:28;;;;;;;12.00;8.10;;;;;;;14.78;45.90;93253.72;5006145;28;20513;-88
2022/12/21 00:09:54;;;;;;;10.48;7.43;;;;;;;14.75;46.00;93258.91;5022643;28;20034;-88
2022/12/21 00:12:19;;;;;;;10.48;7.22;;;;;;;14.77;45.74;93257.69;5005754;28;20050;-87
2022/12/21 00:14:45;;;;;;;10.25;8.10;;;;;;;14.75;46.04;93269.78;4973054;28;20504;-86
2022/12/21 00:17:10;;;;;;;11.05;7.57;;;;;;;14.72;45.92;93268.06;4988636;28;20230;-87
2022/12/21 00:19:35;;;;;;;12.13;8.30;;;;;;;14.71;45.79;93280.19;4990814;28;20049;-86
2022/12/21 00:22:01;;;;;;;10.10;7.15;;;;;;;14.75;45.85;93288.09;5022613;28;20037;-85
2022/12/21 00:24:27;;;;;;;10.82;7.75;;;;;;;14.75;45.81;93291.56;4973311;28;20189;-86
2022/12/21 00:26:52;;;;;;;11.60;7.90;;;;;;;14.74;45.73;93290.06;5020524;28;20527;-85
2022/12/21 00:29:18;;;;;;;10.63;7.45;;;;;;;14.73;45.96;93280.41;5011404;28;20050;-87
2022/12/21 00:31:43;;;;;;;11.48;7.78;;;;;;;14.81;45.43;93291.59;5006881;28;20050;-84
2022/12/21 00:34:11;;;;;;;9.82;7.07;;;;;;;14.76;45.75;93300.47;4988878;28;20061;-86
2022/12/21 00:36:38;;;;;;;10.10;6.70;;;;;;;14.76;45.64;93324.97;4989377;28;20034;-86
2022/12/21 00:39:04;;;;;;;11.52;7.75;;;;;;;14.82;45.53;93322.25;4988769;28;20136;-88
2022/12/21 00:41:29;;;;;;;9.90;7.07;;;;;;;14.75;45.65;93313.34;4995542;28;20042;-86
2022/12/21 00:43:55;;;;;;;10.70;7.43;;;;;;;14.77;46.12;93317.53;5011150;28;20046;-85
2022/12/21 00:46:25;;;;;;;9.82;7.03;;;;;;;14.75;45.98;93316.06;4972654;28;20049;-85
2022/12/21 00:48:50;;;;;;;9.43;6.72;;;;;;;14.73;45.96;93310.34;5005633;28;20343;-89
2022/12/21 00:51:18;;;;;;;9.63;6.47;;;;;;;14.75;45.91;93318.78;5005066;28;20540;-85
2022/12/21 00:53:44;;;;;;;10.13;6.72;;;;;;;14.77;45.74;93322.97;5004830;28;20133;-86
2022/12/21 00:56:09;;;;;;;9.38;6.82;;;;;;;14.78;45.77;93324.47;4988492;28;20054;-85
2022/12/21 00:58:35;;;;;;;8.80;6.63;;;;;;;14.75;45.72;93329.66;5005609;28;20046;-85
2022/12/21 01:01:04;;;;;;;10.35;6.20;;;;;;;14.77;45.86;93322.97;4988256;28;20041;-88
2022/12/21 01:03:30;;;;;;;8.70;6.60;;;;;;;14.78;45.44;93319.03;5021778;28;20050;-86
2022/12/21 01:05:55;;;;;;;9.98;6.85;;;;;;;14.81;45.51;93320.78;4980502;28;20054;-85
2022/12/21 01:08:22;;;;;;;8.95;6.60;;;;;;;14.77;45.78;93314.81;5005708;28;20038;-88
2022/12/21 01:10:47;;;;;;;9.35;6.45;;;;;;;14.82;45.46;93303.22;4988416;28;20038;-85
2022/12/21 01:13:13;;;;;;;8.85;6.90;;;;;;;14.80;45.75;93314.59;4988857;28;20045;-85
2022/12/21 01:15:44;;;;;;;9.77;7.10;;;;;;;14.80;45.79;93320.03;5004803;28;20058;-87
2022/12/21 01:18:10;;;;;;;9.15;6.72;;;;;;;14.75;45.49;93321.50;5013114;28;20052;-85
2022/12/21 01:20:44;;;;;;;8.60;6.32;;;;;;;14.85;45.03;93337.63;4988638;28;20053;-85
2022/12/21 01:23:10;;;;;;;10.20;6.78;;;;;;;14.80;45.71;93346.50;4987904;28;20034;-85
2022/12/21 01:25:35;;;;;;;11.13;6.60;;;;;;;14.76;46.14;93344.00;5009808;28;20107;-85
2022/12/21 01:28:00;;;;;;;10.05;6.93;;;;;;;14.75;45.83;93348.69;4988798;28;20476;-86
2022/12/21 01:30:26;;;;;;;9.02;6.05;;;;;;;14.76;45.95;93346.72;5009241;28;20046;-85
2022/12/21 01:32:51;;;;;;;9.18;5.80;;;;;;;14.75;45.52;93345.97;4989210;28;20061;-85
2022/12/21 01:35:18;;;;;;;8.77;5.85;;;;;;;14.81;45.67;93339.81;4971309;28;20038;-85
2022/12/21 01:37:44;;;;;;;9.55;6.13;;;;;;;14.84;45.46;93338.84;5009762;28;20042;-85
2022/12/21 01:40:10;;;;;;;10.25;6.80;;;;;;;14.79;45.65;93334.88;5020679;28;20049;-86
2022/12/21 01:42:35;;;;;;;8.85;6.43;;;;;;;14.72;45.77;93327.19;5004682;28;20121;-84
2022/12/21 01:45:06;;;;;;;7.30;6.20;;;;;;;14.75;45.47;93331.63;5004317;28;20038;-86
2022/12/21 01:47:34;;;;;;;;;;;;;;;14.82;45.35;93341.31;4988164;28;20038;-86
2022/12/21 01:50:12;;;;;;;9.25;5.90;;;;;;;14.75;45.54;93339.78;5020962;28;19921;-86
2022/12/21 01:52:37;;;;;;;9.75;6.13;;;;;;;14.74;45.68;93325.44;5002524;28;20035;-85
2022/12/21 01:55:04;;;;;;;9.07;6.50;;;;;;;14.80;45.29;93335.63;5004030;28;20042;-88
2022/12/21 01:57:29;;;;;;;9.43;6.45;;;;;;;14.78;45.65;93341.53;4988124;28;20062;-86
2022/12/21 01:59:56;;;;;;;10.75;6.13;;;;;;;14.77;45.71;93339.31;4971987;28;20317;-87
2022/12/21 02:02:28;;;;;;;8.63;6.07;;;;;;;14.75;45.52;93350.69;4987724;28;20046;-86
2022/12/21 02:04:54;;;;;;;9.50;6.03;;;;;;;14.77;45.43;93345.50;4971931;28;20488;-85
2022/12/21 02:07:20;;;;;;;7.35;5.65;;;;;;;14.77;45.67;93344.75;4987621;28;20065;-86
2022/12/21 02:09:45;;;;;;;9.43;6.70;;;;;;;14.82;45.50;93327.72;4988113;28;20045;-85
2022/12/21 02:12:13;;;;;;;7.70;5.63;;;;;;;14.77;45.57;93312.84;5002912;28;20042;-86
2022/12/21 02:14:39;;;;;;;9.05;6.50;;;;;;;14.77;46.00;93320.25;5003792;28;20065;-85
2022/12/21 02:17:22;;;;;;;8.60;5.85;;;;;;;14.85;45.13;93315.84;5002890;28;20107;-85
2022/12/21 02:20:12;;;;;;;9.63;6.63;;;;;;;14.79;45.47;93318.53;5004995;28;20044;-86
2022/12/21 02:22:55;;;;;;;9.35;6.13;;;;;;;14.77;45.38;93318.28;5017609;28;20129;-85
2022/12/21 02:25:34;;;;;;;8.77;6.18;;;;;;;14.76;45.71;93308.63;4986979;28;20145;-88
2022/12/21 02:28:33;;;;;;;9.13;5.88;;;;;;;14.78;45.77;93305.44;4987672;28;20038;-87
2022/12/21 02:31:17;;;;;;;8.27;5.43;;;;;;;14.79;45.31;93310.38;5002440;28;20049;-87
2022/12/21 02:33:52;;;;;;;8.63;6.10;;;;;;;14.74;45.69;93300.97;5004155;28;20149;-86
2022/12/21 02:36:28;;;;;;;8.70;6.07;;;;;;;14.77;45.45;93293.78;4988702;28;20064;-87
2022/12/21 02:39:03;;;;;;;8.73;5.82;;;;;;;14.72;45.56;93295.25;4987221;28;20129;-85
2022/12/21 02:41:53;;;;;;;9.20;6.18;;;;;;;14.74;45.55;93292.78;5003478;28;20046;-85
2022/12/21 02:44:40;;;;;;;7.78;5.32;;;;;;;14.75;45.58;93299.72;5004067;28;20093;-86
2022/12/21 02:47:17;;;;;;;7.82;5.53;;;;;;;14.78;45.24;93289.84;5002549;28;20124;-85
2022/12/21 02:49:57;;;;;;;8.93;5.88;;;;;;;14.74;45.39;93311.84;5020202;28;20092;-85
2022/12/21 02:52:35;;;;;;;7.10;5.25;;;;;;;14.73;45.46;93313.06;5002397;28;20053;-85
2022/12/21 02:55:00;;;;;;;9.00;6.28;;;;;;;14.74;45.48;93309.13;4971289;28;20141;-85
2022/12/21 02:57:37;;;;;;;7.53;6.00;;;;;;;14.78;45.23;93310.88;5002775;28;20129;-85
2022/12/21 03:00:05;;;;;;;8.20;5.53;;;;;;;14.75;45.68;93318.03;4970646;28;20038;-85
2022/12/21 03:02:44;;;;;;;8.13;5.85;;;;;;;14.73;45.57;93323.97;4972827;28;20069;-85
2022/12/21 03:05:18;;;;;;;8.30;5.65;;;;;;;14.75;45.57;93323.47;4987255;28;20109;-85
2022/12/21 03:08:09;;;;;;;8.90;6.07;;;;;;;14.77;45.49;93328.44;4986339;28;20420;-85
2022/12/21 03:10:54;;;;;;;10.17;5.67;;;;;;;14.74;45.59;93333.59;5002633;28;20502;-85
2022/12/21 03:13:27;;;;;;;8.35;5.82;;;;;;;14.72;45.53;93322.47;5019632;28;20050;-86
2022/12/21 03:16:15;;;;;;;8.90;6.03;;;;;;;14.75;45.46;93312.59;4970757;28;20121;-85
2022/12/21 03:18:41;;;;;;;8.18;5.53;;;;;;;14.80;45.36;93313.84;4989536;28;20042;-85
2022/12/21 03:21:19;;;;;;;8.45;5.40;;;;;;;14.79;45.17;93306.91;4987222;28;20038;-88
2022/12/21 03:23:55;;;;;;;7.07;5.35;;;;;;;14.74;45.41;93298.22;4988625;28;20092;-86
2022/12/21 03:26:23;;;;;;;9.45;6.03;;;;;;;14.76;45.61;93303.19;5006873;28;20081;-85
2022/12/21 03:28:49;;;;;;;7.38;5.05;;;;;;;14.78;45.45;93327.94;4990669;28;20034;-86
2022/12/21 03:31:20;;;;;;;9.57;5.88;;;;;;;14.80;45.61;93335.63;5005884;28;20058;-85
2022/12/21 03:33:46;;;;;;;;;;;;;;;14.81;45.40;93324.25;4975046;28;20042;-89
2022/12/21 03:36:19;;;;;;;7.85;5.18;;;;;;;14.77;45.13;93320.25;5006329;28;19924;-85
2022/12/21 03:38:54;;;;;;;8.68;6.10;;;;;;;14.75;45.50;93318.78;4974793;28;20046;-85
2022/12/21 03:41:31;;;;;;;6.55;4.70;;;;;;;14.74;45.73;93317.28;4989517;28;20516;-86
2022/12/21 03:43:57;;;;;;;6.88;5.07;;;;;;;14.72;45.41;93316.31;4974003;28;20050;-86
2022/12/21 03:46:27;;;;;;;7.32;5.30;;;;;;;14.73;45.26;93310.34;4990045;28;20543;-85
2022/12/21 03:49:01;;;;;;;7.95;5.47;;;;;;;14.78;45.16;93308.16;4990677;28;20496;-85
2022/12/21 03:51:34;;;;;;;8.10;5.15;;;;;;;14.75;45.48;93307.16;4989186;28;20086;-85
2022/12/21 03:54:12;;;;;;;8.25;5.60;;;;;;;14.75;45.32;93309.88;4990191;28;20035;-86
2022/12/21 03:56:37;;;;;;;7.10;5.47;;;;;;;14.75;45.57;93329.66;5009631;28;20030;-85
2022/12/21 03:59:03;;;;;;;7.93;5.70;;;;;;;14.75;45.27;93332.38;4973495;28;20058;-86
2022/12/21 04:01:47;;;;;;;7.85;6.18;;;;;;;14.77;45.29;93322.97;4989830;28;20051;-85
2022/12/21 04:04:41;;;;;;;6.93;5.28;;;;;;;14.79;45.31;93323.97;5023064;28;20043;-85
2022/12/21 04:07:07;;;;;;;8.82;5.53;;;;;;;14.76;45.45;93322.25;5021139;28;20481;-86
2022/12/21 04:09:32;;;;;;;8.63;5.80;;;;;;;14.72;45.67;93317.03;5007040;28;20048;-85
2022/12/21 04:14:43;;;;;;;9.13;5.40;;;;;;;14.69;45.42;93304.44;4989896;28;20126;-85
2022/12/21 04:17:08;;;;;;;9.52;5.78;;;;;;;14.69;45.53;93298.25;4972858;28;20046;-86
2022/12/21 04:30:29;;;;;;;8.75;5.38;;;;;;;14.73;45.30;93277.69;5002728;28;20472;-87
2022/12/21 04:32:54;;;;;;;7.85;5.20;;;;;;;14.76;45.29;93275.97;4989263;28;20533;-86
2022/12/21 04:35:20;;;;;;;7.93;5.65;;;;;;;14.75;44.98;93280.69;5005016;28;20038;-85
2022/12/21 04:37:45;;;;;;;8.20;5.57;;;;;;;14.77;45.35;93266.59;5005253;28;20042;-85
2022/12/21 04:40:11;;;;;;;7.70;5.18;;;;;;;14.77;45.47;93274.75;5005785;28;20398;-85
2022/12/21 04:42:38;;;;;;;9.20;6.07;;;;;;;14.71;45.22;93277.47;4990593;28;20042;-85
2022/12/21 04:45:04;;;;;;;5.95;4.75;;;;;;;14.69;45.46;93268.31;5010188;28;20125;-85
2022/12/21 04:47:29;;;;;;;8.93;5.30;;;;;;;14.71;45.27;93271.28;4999721;28;20441;-85
2022/12/21 04:49:55;;;;;;;7.40;5.25;;;;;;;14.70;45.39;93269.81;4991523;28;20038;-86
2022/12/21 04:52:20;;;;;;;8.00;5.63;;;;;;;14.72;45.34;93280.94;5005894;28;20339;-86
2022/12/21 04:54:45;;;;;;;7.78;5.00;;;;;;;14.75;45.16;93272.50;4977597;28;20093;-85
2022/12/21 04:57:11;;;;;;;8.07;5.32;;;;;;;14.75;45.26;93277.97;5002774;28;20061;-86
2022/12/21 04:59:36;;;;;;;8.60;5.78;;;;;;;14.78;45.02;93280.94;4990945;28;20552;-86
2022/12/21 05:02:02;;;;;;;9.02;5.30;;;;;;;14.72;45.04;93287.09;5007140;28;20568;-87
2022/12/21 05:04:27;;;;;;;6.63;5.10;;;;;;;14.75;45.02;93288.09;5006900;28;20496;-85
2022/12/21 05:06:54;;;;;;;7.68;4.93;;;;;;;14.71;45.34;93282.91;4989830;28;20052;-86
2022/12/21 05:09:20;;;;;;;6.68;5.15;;;;;;;14.76;45.22;93295.03;4990977;28;20528;-87
2022/12/21 05:11:45;;;;;;;8.10;5.25;;;;;;;14.74;45.48;93300.22;4974444;28;20408;-85
2022/12/21 05:14:11;;;;;;;8.10;5.38;;;;;;;14.75;45.16;93299.72;4989448;28;20639;-88
2022/12/21 05:16:38;;;;;;;7.43;4.50;;;;;;;14.72;45.32;93291.81;4978049;28;20034;-85
2022/12/21 05:19:03;;;;;;;7.57;5.43;;;;;;;14.70;45.53;93286.88;4972224;28;20042;-85
2022/12/21 05:21:29;;;;;;;8.90;6.00;;;;;;;14.75;45.43;93286.13;4972058;28;20047;-88
2022/12/21 05:23:54;;;;;;;7.68;5.72;;;;;;;14.73;44.35;93294.03;5002757;28;20046;-86
2022/12/21 05:26:20;;;;;;;20.10;12.98;;;;;;;14.58;39.86;93298.19;5004475;28;20046;-88
2022/12/21 05:28:45;;;;;;;25.77;15.93;;;;;;;14.45;38.11;93301.34;5005262;28;20476;-87
2022/12/21 05:31:12;;;;;;;33.05;16.65;;;;;;;14.23;37.19;93304.66;4992105;28;20368;-86
2022/12/21 05:33:37;;;;;;;27.35;15.60;;;;;;;14.19;37.28;93301.44;5006790;28;20461;-86
2022/12/21 05:36:04;;;;;;;35.47;17.02;;;;;;;14.33;38.03;93291.59;5003750;28;20509;-87
2022/12/21 05:38:29;;;;;;;94.15;54.83;;;;;;;14.42;38.25;93299.59;4984542;28;20046;-87
2022/12/21 05:40:55;;;;;;;149.45;110.70;;;;;;;14.47;38.62;93304.31;5008330;28;20463;-89
2022/12/21 05:43:22;;;;;;;185.27;125.78;;;;;;;14.57;40.49;93304.84;4991237;28;20080;-88
2022/12/21 05:45:52;;;;;;;26.40;15.18;;;;;;;14.57;41.75;93304.84;5020221;28;20046;-90
2022/12/21 05:48:19;;;;;;;39.13;14.23;;;;;;;14.69;42.00;93306.41;4994838;28;20038;-94
2022/12/21 05:50:47;;;;;;;52.80;22.27;;;;;;;14.63;41.47;93305.63;4996508;28;20037;-94
2022/12/21 05:53:17;;;;;;;37.83;19.15;;;;;;;14.59;41.23;93297.69;4974408;28;20042;-89
2022/12/21 05:55:45;;;;;;;29.85;17.77;;;;;;;14.61;40.94;93311.56;4994366;28;20052;-90
2022/12/21 05:58:12;;;;;;;26.70;15.70;;;;;;;14.57;40.80;93302.88;5003275;28;20053;-88
2022/12/21 06:00:50;;;;;;;33.55;20.27;;;;;;;14.62;41.09;93307.59;5002981;28;20042;-93
2022/12/21 06:03:16;;;;;;;58.33;20.90;;;;;;;14.64;41.54;93301.69;4976579;28;20265;-93
2022/12/21 06:05:47;;;;;;;56.25;22.10;;;;;;;14.68;41.71;93302.94;4991297;28;20042;-93
2022/12/21 06:08:12;;;;;;;72.18;28.52;;;;;;;14.67;42.20;93306.13;5021347;28;20397;-92
2022/12/21 06:10:55;;;;;;;88.28;36.17;;;;;;;14.76;41.78;93300.47;4982804;28;20041;-95
2022/12/21 06:13:21;;;;;;;81.68;39.40;;;;;;;14.65;41.45;93303.91;5009454;28;20053;-95
2022/12/21 06:15:47;;;;;;;75.45;38.75;;;;;;;14.59;41.22;93305.84;4974903;28;20515;-92
2022/12/21 06:18:26;;;;;;;122.28;54.83;;;;;;;14.59;41.65;93299.66;5003978;28;20035;-95
2022/12/21 06:20:52;;;;;;;120.85;52.63;;;;;;;14.58;42.21;93298.91;4981422;28;20039;-93
2022/12/21 06:23:18;;;;;;;107.60;50.42;;;;;;;14.65;42.41;93298.47;4980068;28;20038;-94
2022/12/21 06:25:43;;;;;;;253.00;62.08;;;;;;;14.69;41.87;93295.53;4983220;28;20501;-92
2022/12/21 06:28:09;;;;;;;92.10;39.92;;;;;;;14.68;41.66;93302.19;4970082;28;20073;-94
2022/12/21 06:30:34;;;;;;;89.32;40.25;;;;;;;14.65;41.68;93303.16;5013979;28;20113;-91
2022/12/21 06:33:00;;;;;;;116.03;39.47;;;;;;;14.69;41.81;93309.13;4990264;28;20035;-90
2022/12/21 06:35:27;;;;;;;87.20;36.58;;;;;;;14.72;42.37;93299.97;4974414;28;20053;-91
2022/12/21 06:37:55;;;;;;;70.10;32.22;;;;;;;14.62;40.83;93310.31;4989995;28;20549;-93
2022/12/21 06:40:21;;;;;;;82.00;32.55;;;;;;;14.58;41.33;93314.50;4998613;28;20053;-94
2022/12/21 06:42:46;;;;;;;86.53;33.75;;;;;;;14.63;41.41;93317.25;4990321;28;20039;-93
2022/12/21 06:45:11;;;;;;;82.53;33.88;;;;;;;14.65;41.34;93311.31;4993615;28;20046;-91
2022/12/21 06:47:39;;;;;;;77.95;33.03;;;;;;;14.75;42.03;93313.34;4992320;28;20042;-94
2022/12/21 06:50:08;;;;;;;79.10;33.97;;;;;;;14.75;42.20;93309.88;4997937;28;20053;-91
2022/12/21 06:52:43;;;;;;;58.58;30.05;;;;;;;14.84;42.14;93314.34;4992395;28;20134;-95
2022/12/21 06:55:09;;;;;;;62.03;28.90;;;;;;;14.68;42.23;93311.09;4970626;28;20039;-93
2022/12/21 06:57:39;;;;;;;57.15;27.85;;;;;;;14.80;42.13;93313.84;5012480;28;20038;-93
2022/12/21 07:00:09;;;;;;;63.40;30.30;;;;;;;14.82;42.62;93319.53;5022175;28;20039;-88
2022/12/21 07:02:36;;;;;;;57.85;28.50;;;;;;;14.86;42.11;93309.16;5014850;28;20106;-87
2022/12/21 07:05:02;;;;;;;49.72;27.60;;;;;;;14.87;43.93;93314.13;5022062;28;20054;-90
2022/12/21 07:07:28;;;;;;;53.80;27.42;;;;;;;14.92;43.72;93318.84;4994772;28;20113;-86
2022/12/21 07:09:53;;;;;;;55.78;27.38;;;;;;;14.96;43.41;93324.78;5000013;28;20257;-88
2022/12/21 07:12:19;;;;;;;54.75;26.85;;;;;;;14.99;43.17;93317.63;4996550;28;20042;-90
2022/12/21 07:14:44;;;;;;;63.67;27.05;;;;;;;15.09;43.17;93325.09;4986627;28;20052;-90
2022/12/21 07:17:10;;;;;;;52.58;24.27;;;;;;;15.07;42.07;93318.63;4966641;28;20050;-88
2022/12/21 07:19:36;;;;;;;55.75;26.20;;;;;;;15.02;41.87;93328.28;4981289;28;20100;-87
2022/12/21 07:22:01;;;;;;;45.22;25.20;;;;;;;14.99;41.95;93317.63;4972326;28;20129;-93
2022/12/21 07:24:27;;;;;;;63.85;27.55;;;;;;;14.98;42.31;93324.28;4961267;28;20053;-93
2022/12/21 07:26:52;;;;;;;38.65;21.92;;;;;;;15.02;42.25;93319.38;4986327;28;20047;-94
2022/12/21 07:29:17;;;;;;;47.05;24.27;;;;;;;14.98;42.42;93319.59;4990959;28;20046;-87
2022/12/21 07:31:43;;;;;;;50.72;24.38;;;;;;;15.01;42.12;93323.31;4986064;28;20118;-90
2022/12/21 07:34:08;;;;;;;53.28;22.88;;;;;;;15.02;42.11;93331.00;4965035;28;20042;-86
2022/12/21 07:36:34;;;;;;;40.65;22.70;;;;;;;15.00;42.22;93324.56;4989652;28;20496;-90
2022/12/21 07:38:59;;;;;;;47.33;23.13;;;;;;;14.97;41.87;93320.81;4952046;28;20051;-87
2022/12/21 07:41:25;;;;;;;42.00;20.95;;;;;;;14.99;42.33;93323.06;4984805;28;20100;-86
2022/12/21 07:43:50;;;;;;;38.10;22.50;;;;;;;14.96;42.27;93329.47;4976579;28;20042;-89
2022/12/21 07:46:16;;;;;;;40.22;21.70;;;;;;;14.96;42.44;93327.50;4972421;28;20565;-92
2022/12/21 07:48:42;;;;;;;61.08;23.35;;;;;;;15.00;42.26;93330.75;5019151;28;20031;-88
2022/12/21 07:51:07;;;;;;;38.40;20.33;;;;;;;14.95;42.41;93336.16;4985527;28;20027;-90
2022/12/21 07:53:33;;;;;;;40.97;20.80;;;;;;;14.97;42.51;93331.72;5017141;28;20049;-91
2022/12/21 07:56:05;;;;;;;42.00;21.05;;;;;;;14.93;42.33;93336.69;5005797;28;20030;-91
2022/12/21 07:58:30;;;;;;;36.30;19.33;;;;;;;14.99;42.73;93325.78;4974547;28;20043;-91
2022/12/21 08:01:06;;;;;;;36.75;23.17;;;;;;;14.92;40.87;93323.56;4987550;28;20475;-92
2022/12/21 08:03:31;;;;;;;51.95;25.00;;;;;;;14.81;40.66;93318.06;4999294;28;20042;-93
2022/12/21 08:05:57;;;;;;;47.83;23.98;;;;;;;14.85;40.81;93329.47;5008844;28;20132;-92
2022/12/21 08:08:24;;;;;;;35.53;21.23;;;;;;;14.83;40.78;93326.47;4990090;28;20046;-92
2022/12/21 08:10:49;;;;;;;44.83;20.55;;;;;;;14.88;41.47;93320.31;4988229;28;20642;-93
2022/12/21 08:13:17;;;;;;;40.20;21.35;;;;;;;14.94;42.05;93319.09;5023300;28;20046;-90
2022/12/21 08:15:43;;;;;;;38.95;18.77;;;;;;;14.81;41.19;93321.53;5007940;28;20034;-91
2022/12/21 08:18:08;;;;;;;33.30;18.63;;;;;;;14.82;41.68;93325.00;5010520;28;20049;-89
2022/12/21 08:20:34;;;;;;;34.10;18.80;;;;;;;14.77;41.33;93323.72;4992176;28;20054;-91
2022/12/21 08:22:59;;;;;;;36.05;19.88;;;;;;;14.81;41.74;93332.41;4990844;28;20039;-89
2022/12/21 08:25:26;;;;;;;42.63;21.30;;;;;;;14.83;42.20;93329.19;5006935;28;20122;-93
2022/12/21 08:27:51;;;;;;;42.88;22.73;;;;;;;14.87;41.93;93332.44;4994405;28;20046;-96
2022/12/21 08:30:17;;;;;;;78.55;39.22;;;;;;;14.88;42.42;93329.22;4992407;28;20058;-96
2022/12/21 08:32:44;;;;;;;62.53;31.45;;;;;;;14.95;41.79;93325.28;5003868;28;20741;-92
2022/12/21 08:35:09;;;;;;;73.15;36.38;;;;;;;14.97;42.32;93325.53;5001178;28;20038;-93
2022/12/21 08:37:35;;;;;;;69.63;36.70;;;;;;;14.90;42.31;93329.47;5040794;28;20045;-88
2022/12/21 08:40:01;;;;;;;79.05;37.90;;;;;;;14.89;42.26;93319.81;5032908;28;20056;-89
2022/12/21 08:42:26;;;;;;;82.72;40.50;;;;;;;14.98;42.02;93327.00;5013374;28;20040;-91
2022/12/21 08:44:52;;;;;;;82.18;41.85;;;;;;;14.94;42.00;93327.25;5018699;28;20038;-89
2022/12/21 08:47:17;;;;;;;79.63;40.50;;;;;;;14.92;42.39;93321.56;5038515;28;20075;-87
2022/12/21 08:49:43;;;;;;;72.22;37.13;;;;;;;14.97;42.26;93329.00;5013027;28;20622;-90
2022/12/21 08:52:08;;;;;;;81.03;40.95;;;;;;;14.98;42.31;93324.28;5028687;28;20045;-85
2022/12/21 08:54:34;;;;;;;75.22;38.42;;;;;;;14.92;42.37;93331.72;5021331;28;20099;-87
2022/12/21 08:57:00;;;;;;;75.55;36.70;;;;;;;14.90;41.80;93326.75;5037548;28;20130;-88
2022/12/21 08:59:25;;;;;;;78.32;37.53;;;;;;;14.94;42.08;93327.25;5044131;28;20040;-88
2022/12/21 09:01:51;;;;;;;68.25;36.15;;;;;;;14.91;42.20;93322.06;5027519;28;20050;-92
2022/12/21 09:04:17;;;;;;;72.53;35.80;;;;;;;14.99;42.00;93325.78;5049383;28;20045;-86
2022/12/21 09:06:42;;;;;;;77.72;38.08;;;;;;;14.95;42.13;93325.28;5023504;28;20493;-86
2022/12/21 09:09:08;;;;;;;75.70;37.28;;;;;;;14.95;42.31;93326.00;5005683;28;20061;-89
2022/12/21 09:11:34;;;;;;;73.03;38.15;;;;;;;14.94;42.43;93323.81;5006305;28;20088;-90
2022/12/21 09:14:00;;;;;;;82.43;40.75;;;;;;;14.99;42.54;93325.78;5005790;28;20054;-91
2022/12/21 09:16:25;;;;;;;78.30;42.30;;;;;;;14.94;42.22;93324.53;5004638;28;20102;-87
2022/12/21 09:18:51;;;;;;;79.57;43.63;;;;;;;14.93;42.53;93320.34;5003187;28;20064;-88
2022/12/21 09:21:19;;;;;;;92.95;46.10;;;;;;;14.93;42.40;93323.06;5015303;28;20047;-90
2022/12/21 09:23:44;;;;;;;102.80;47.45;;;;;;;14.95;42.65;93320.56;5005331;28;20514;-85
2022/12/21 09:26:10;;;;;;;87.38;45.50;;;;;;;14.95;42.38;93314.38;4972610;28;20034;-89
2022/12/21 09:28:36;;;;;;;97.13;43.85;;;;;;;14.98;42.51;93325.03;4987472;28;20042;-85
2022/12/21 09:31:11;;;;;;;75.82;41.25;;;;;;;15.02;42.21;93320.09;5039206;28;20034;-87
2022/12/21 09:33:37;;;;;;;83.72;40.67;;;;;;;15.11;42.20;93318.41;5016801;28;20101;-90
2022/12/21 09:36:03;;;;;;;82.68;37.78;;;;;;;15.05;42.53;93324.56;5000195;28;20047;-85
2022/12/21 09:38:30;;;;;;;69.85;36.92;;;;;;;14.98;42.38;93322.31;4975839;28;20082;-91
2022/12/21 09:41:00;;;;;;;75.50;36.92;;;;;;;15.00;42.62;93305.50;5038273;28;20041;-91
2022/12/21 09:43:36;;;;;;;68.25;37.80;;;;;;;15.00;42.86;93313.66;5021463;28;20046;-92
2022/12/21 09:46:05;;;;;;;69.65;35.90;;;;;;;15.09;42.51;93319.63;5001036;28;20551;-85
2022/12/21 09:48:36;;;;;;;67.07;33.38;;;;;;;14.94;42.54;93307.47;5007466;28;20184;-86
2022/12/21 09:51:05;;;;;;;55.53;26.60;;;;;;;14.83;40.56;93316.34;5003338;28;20039;-88
2022/12/21 09:53:36;;;;;;;49.33;23.83;;;;;;;14.65;40.18;93314.03;5004677;28;20046;-88
2022/12/21 09:56:01;;;;;;;52.13;21.80;;;;;;;14.56;39.76;93306.81;5009725;28;20038;-90
2022/12/21 09:58:44;;;;;;;41.30;21.15;;;;;;;14.52;39.86;93314.47;4978500;28;20911;-86
2022/12/21 10:01:27;;;;;;;57.80;20.77;;;;;;;14.43;40.15;93311.97;5004102;28;20030;-86
2022/12/21 10:04:27;;;;;;;49.20;20.67;;;;;;;14.50;40.11;93303.34;5004319;28;20038;-87
2022/12/21 10:07:17;;;;;;;51.25;22.65;;;;;;;14.52;40.53;93300.88;4987406;28;20046;-89
2022/12/21 10:09:46;;;;;;;50.08;22.98;;;;;;;14.63;40.54;93303.66;4989260;28;20416;-87
2022/12/21 10:12:34;;;;;;;54.72;27.00;;;;;;;14.63;41.21;93295.50;5018851;28;20038;-88
2022/12/21 10:15:08;;;;;;;55.17;27.48;;;;;;;14.69;41.26;93298.97;5016531;28;20064;-89
2022/12/21 10:17:44;;;;;;;53.78;27.08;;;;;;;14.80;41.90;93302.97;5008918;28;20057;-88
2022/12/21 10:20:28;;;;;;;56.45;27.50;;;;;;;14.79;42.63;93290.59;4992483;28;20033;-86
2022/12/21 10:23:00;;;;;;;162.00;42.47;;;;;;;14.77;42.85;93291.06;5016894;28;20068;-89
2022/12/21 10:25:42;;;;;;;121.88;40.17;;;;;;;14.79;42.75;93290.59;4979501;28;20836;-87
2022/12/21 10:28:26;;;;;;;79.18;35.88;;;;;;;14.82;42.42;93295.06;5007969;28;20041;-87
2022/12/21 10:30:59;;;;;;;90.70;42.60;;;;;;;14.83;42.04;93291.84;4999964;28;20079;-88
2022/12/21 10:33:24;;;;;;;80.28;38.83;;;;;;;14.87;41.91;93294.34;5015970;28;20711;-88
2022/12/21 10:35:51;;;;;;;97.47;39.13;;;;;;;14.86;42.27;93287.41;4977522;28;20072;-89
2022/12/21 10:38:19;;;;;;;72.25;35.95;;;;;;;14.88;42.32;93288.41;4990422;28;20614;-92
2022/12/21 10:40:49;;;;;;;64.82;34.70;;;;;;;14.90;42.01;93298.81;5007431;28;20053;-90
2022/12/21 10:43:17;;;;;;;75.22;39.40;;;;;;;14.86;42.42;93293.59;5002488;28;20056;-90
2022/12/21 10:45:43;;;;;;;85.55;43.50;;;;;;;14.93;42.13;93290.41;5004044;28;20097;-85
2022/12/21 10:48:09;;;;;;;72.60;37.78;;;;;;;14.94;42.11;93286.41;5003260;28;20030;-90
2022/12/21 10:50:39;;;;;;;74.00;37.90;;;;;;;14.88;42.42;93290.38;5022782;28;20042;-85
2022/12/21 10:53:24;;;;;;;79.40;41.42;;;;;;;14.95;42.36;93293.34;5001622;28;20061;-88
2022/12/21 10:55:51;;;;;;;77.75;43.13;;;;;;;14.90;42.32;93293.34;4989410;28;20038;-91
2022/12/21 10:58:25;;;;;;;85.32;42.85;;;;;;;14.94;42.70;93285.69;4995317;28;20058;-87
2022/12/21 11:00:58;;;;;;;85.72;39.22;;;;;;;14.92;42.85;93296.34;4992260;28;20108;-89
2022/12/21 11:03:31;;;;;;;64.28;37.83;;;;;;;14.91;42.67;93289.41;5003506;28;20041;-88
2022/12/21 11:05:56;;;;;;;76.50;37.08;;;;;;;14.95;42.48;93282.47;5003298;28;20059;-91
2022/12/21 11:08:30;;;;;;;71.97;37.22;;;;;;;14.93;42.35;93292.38;5005415;28;20054;-85
2022/12/21 11:10:58;;;;;;;61.70;35.28;;;;;;;14.95;42.46;93284.44;5003934;28;20038;-90
2022/12/21 11:13:25;;;;;;;60.13;33.45;;;;;;;14.91;42.55;93278.50;4999785;28;20042;-89
2022/12/21 11:15:52;;;;;;;59.45;32.42;;;;;;;14.93;42.46;93282.25;4970732;28;20042;-91
2022/12/21 11:18:25;;;;;;;56.75;32.20;;;;;;;14.92;42.68;93280.75;5017221;28;20049;-88
2022/12/21 11:20:50;;;;;;;55.13;30.13;;;;;;;14.93;42.34;93282.25;5003047;28;20493;-90
2022/12/21 11:23:16;;;;;;;53.55;29.52;;;;;;;14.93;42.29;93284.22;4987030;28;20052;-91
2022/12/21 11:25:41;;;;;;;53.95;28.70;;;;;;;15.06;42.66;93273.59;4987272;28;20050;-86
2022/12/21 11:28:07;;;;;;;45.58;27.38;;;;;;;15.00;42.93;93275.56;4969692;28;20321;-86
2022/12/21 11:30:34;;;;;;;51.88;27.13;;;;;;;14.98;42.55;93272.56;5002414;28;20034;-94
2022/12/21 11:32:59;;;;;;;54.85;33.95;;;;;;;14.99;42.36;93274.06;5004728;28;20039;-90
2022/12/21 11:35:28;;;;;;;48.95;29.15;;;;;;;14.98;42.55;93269.84;5011135;28;20042;-88
2022/12/21 11:37:56;;;;;;;53.15;30.02;;;;;;;14.97;42.88;93268.38;4985480;28;20054;-91
2022/12/21 11:40:22;;;;;;;38.70;24.92;;;;;;;15.02;42.63;93265.66;5002636;28;20092;-85
2022/12/21 11:43:18;;;;;;;47.58;31.15;;;;;;;15.01;42.72;93258.72;5005812;28;20046;-88
2022/12/21 11:46:02;;;;;;;44.55;27.15;;;;;;;15.00;42.72;93259.22;5000154;28;20049;-92